Date,TemperatureHighF,TemperatureAvgF,TemperatureLowF,DewpointHighF,DewpointAvgF,DewpointLowF,HumidityHigh,HumidityAvg,HumidityLow,PressureMaxIn,PressureMinIn,WindSpeedMaxMPH,WindSpeedAvgMPH,GustSpeedMaxMPH,PrecipitationSumIn
2013-5-1,71.5,53.6,32.7,44.3,35.7,30.3,98,58,24,30.47,30.38,4,1,11,0.00
2013-5-2,77.3,52.5,36.6,47.8,40.1,34.6,98,68,23,30.51,30.36,6,1,16,0.00
2013-5-3,62.2,48.7,35.7,47.5,41.0,34.6,99,77,53,30.55,30.39,5,2,14,0.00
2013-5-4,62.0,47.7,35.0,46.5,39.2,33.7,99,75,43,30.39,30.32,5,2,16,0.00
2013-5-5,63.7,47.3,29.8,45.1,38.1,29.1,99,74,43,30.36,30.25,4,1,12,0.00
2013-5-6,69.8,49.5,30.2,51.4,41.9,29.5,99,79,32,30.30,30.16,5,1,13,0.00
2013-5-7,81.0,61.9,41.5,58.9,50.4,40.9,99,72,29,30.18,30.08,4,1,17,0.00
2013-5-8,76.0,62.3,48.6,64.0,57.6,47.8,99,86,62,30.22,30.07,6,2,19,0.14
2013-5-9,63.8,58.0,54.7,61.9,57.3,54.1,99,98,89,30.07,29.90,3,0,7,0.37
2013-5-10,79.8,64.7,55.7,63.1,58.3,54.8,100,82,46,29.95,29.89,4,1,11,0.01
2013-5-11,69.8,61.7,52.8,64.1,59.3,52.3,100,92,78,29.91,29.69,4,1,13,0.10
2013-5-12,71.5,60.7,44.8,61.5,52.1,31.0,99,76,42,29.79,29.55,4,1,13,0.09
2013-5-13,58.4,49.3,40.1,35.7,32.2,28.8,76,53,34,30.03,29.79,5,2,17,0.00
2013-5-14,60.7,48.0,33.2,39.1,33.4,28.1,96,61,32,30.06,29.96,4,1,14,0.00
2013-5-15,68.0,50.8,31.4,53.6,40.4,30.2,98,74,29,30.06,29.67,5,1,16,0.15
2013-5-16,81.0,64.0,41.9,54.9,43.9,37.3,100,57,22,29.82,29.60,5,2,23,0.00
2013-5-17,70.2,57.7,45.2,45.7,42.1,35.3,91,59,32,30.22,29.82,4,1,12,0.00
2013-5-18,72.2,56.7,40.7,50.7,45.6,34.9,98,71,27,30.31,30.22,5,1,13,0.00
2013-5-19,69.0,56.0,51.2,57.2,51.4,48.7,98,85,61,30.36,30.23,4,1,11,0.10
2013-5-20,81.0,65.3,52.1,67.5,60.4,51.6,99,86,58,30.23,29.92,3,1,11,0.09
2013-5-21,64.7,56.8,49.7,62.0,55.2,49.0,99,94,83,30.07,29.92,4,1,12,0.12
2013-5-22,58.8,53.7,49.8,56.6,52.6,49.3,100,96,88,30.05,29.89,2,1,8,0.93
2013-5-23,75.2,61.4,51.8,71.9,60.1,51.5,100,96,82,29.94,29.78,4,1,14,0.40
2013-5-24,72.9,63.0,49.5,68.9,60.9,49.0,99,93,79,29.84,29.64,4,1,12,0.92
2013-5-25,51.7,48.1,39.2,51.1,47.4,37.9,99,97,94,29.84,29.70,3,1,11,0.52
2013-5-26,57.7,47.5,39.1,46.8,41.1,37.9,98,80,58,30.08,29.68,4,2,17,0.14
2013-5-27,72.2,55.1,37.0,46.4,41.1,35.1,99,66,28,30.19,30.07,4,1,11,0.00
2013-5-28,72.2,57.0,39.0,50.2,44.1,38.2,99,68,33,30.25,30.17,4,1,12,0.00
2013-5-29,62.3,57.6,49.1,61.6,57.0,48.0,99,98,95,30.19,29.99,1,0,4,0.20
2013-5-30,89.3,72.5,56.2,70.5,64.6,55.9,100,80,42,30.07,29.99,3,1,12,0.08
2013-5-31,94.9,78.1,61.0,71.6,66.4,60.6,100,72,36,30.08,29.90,3,1,11,0.00